Decoded Metar for OINN (NOSHAHR in IRAN) (IATA:N/A) | Meteo·Mobile Aviation Weather
aviador You're here:

OINN Decoded Metar

NOSHAHR in IRAN
Report Time2019-01-18 14:00:00
UTC Time2019-01-18 14:25:43
Flight Rules mvfr MVFR
Wind260° at 02 kt
W.Decomp.*RWY 28: 1.8 kt HW 0.8 kt LCW
W.Rank260° ranks 19
Current wind is below 260° avg. (5.5)
Visibility7000 m
Phenomena:N/A
Clouds:Broken 014 Hf
Few CB 020 Hf
Overcast 080 Hf
Expected CloudBase > 800 ft AGL from Temp-Dew spread
Ceiling1,400 ft
Temp06°C (ISA -9)
Dew Point04°C (87% RH)
AAT4.0°C
QNH1023 hPa
Density Alt-1,391 ft
Elevation-62 ft
Report Wrong Elevation
Raw Report
OINN 181400Z 26002KT 7000 BKN014 FEW020CB OVC080 06/04 Q1023=

Extra information for OINN:More info

Metar Taf Metar & Taf Last 4 Metars F.Rules Stats Wind Profile Meteogram Temp Stats Airport Information Weather charts Add Link Nearby VenuesMetar ALERT Operation Metar Decoded Social comments